Time;durP1;ratioP1;P1;durP2;ratioP2;P2;SDS_P1;SDS_P2;PMS_P1;PMS_P2;Temp;Humidity;BMP_temperature;BMP_pressure;BME280_temperature;BME280_humidity;BME280_pressure;Samples;Min_cycle;Max_cycle;Signal;HPM_P1;HPM_P2
2022/11/19 00:01:25;;;;;;;40.55;24.67;;;;;;;2.60;89.90;100325.75;1755957;81;20955;-86
2022/11/19 00:03:56;;;;;;;36.50;24.27;;;;;;;2.60;90.12;100334.39;1755419;81;21405;-86
2022/11/19 00:06:25;;;;;;;35.92;22.67;;;;;;;2.61;90.33;100324.42;1757803;78;20924;-86
2022/11/19 00:08:52;;;;;;;36.53;22.62;;;;;;;2.60;90.24;100316.69;1757495;81;21233;-84
2022/11/19 00:14:08;;;;;;;39.10;26.27;;;;;;;2.62;90.39;100320.08;1764364;81;21417;-86
2022/11/19 00:16:36;;;;;;;40.48;25.68;;;;;;;2.59;90.58;100311.97;1751237;82;21370;-88
2022/11/19 00:19:04;;;;;;;39.40;24.30;;;;;;;2.59;90.72;100308.09;1764261;81;20927;-86
2022/11/19 00:21:31;;;;;;;44.42;26.37;;;;;;;2.59;90.89;100290.42;1751220;81;21846;-86
2022/11/19 00:23:59;;;;;;;46.53;28.67;;;;;;;2.61;91.08;100285.59;1751128;82;21422;-88
2022/11/19 00:26:26;;;;;;;46.58;28.57;;;;;;;2.66;91.16;100284.98;1750970;82;20849;-86
2022/11/19 00:28:53;;;;;;;38.92;22.40;;;;;;;2.67;91.25;100273.75;1751081;82;20857;-88
2022/11/19 00:31:20;;;;;;;32.98;21.60;;;;;;;2.68;91.24;100274.58;1750733;81;20923;-87
2022/11/19 00:33:49;;;;;;;33.92;21.97;;;;;;;2.64;91.26;100265.22;1750814;82;21238;-87
2022/11/19 00:36:15;;;;;;;29.42;19.48;;;;;;;2.64;91.42;100253.57;1750654;82;20900;-86
2022/11/19 00:38:42;;;;;;;28.45;18.85;;;;;;;2.64;91.51;100236.30;1750242;82;20936;-86
2022/11/19 00:41:09;;;;;;;25.92;16.97;;;;;;;2.62;91.68;100236.82;1750069;82;20987;-87
2022/11/19 00:43:46;;;;;;;23.85;17.30;;;;;;;2.62;91.75;100241.13;1750306;82;21427;-90
2022/11/19 00:46:28;;;;;;;26.05;16.97;;;;;;;2.61;91.84;100232.98;1750134;82;21134;-87
2022/11/19 00:48:56;;;;;;;23.00;15.80;;;;;;;2.63;92.06;100235.91;1749946;82;20904;-86
2022/11/19 00:51:26;;;;;;;25.10;16.65;;;;;;;2.65;92.06;100234.57;1750266;82;20897;-86
2022/11/19 00:53:53;;;;;;;24.92;16.87;;;;;;;2.65;92.07;100226.80;1749991;82;20955;-88
2022/11/19 00:56:22;;;;;;;25.23;17.92;;;;;;;2.67;92.24;100219.84;1750213;82;20912;-87
2022/11/19 00:58:49;;;;;;;27.10;18.32;;;;;;;2.68;92.29;100212.00;1750679;82;21326;-88
2022/11/19 01:01:18;;;;;;;31.23;20.60;;;;;;;2.69;92.43;100216.30;1750798;82;21394;-87
2022/11/19 01:03:44;;;;;;;30.48;20.12;;;;;;;2.71;92.45;100203.27;1750654;81;21327;-87
2022/11/19 01:06:11;;;;;;;33.98;22.37;;;;;;;2.72;92.61;100197.22;1750689;81;20952;-87
2022/11/19 01:08:38;;;;;;;40.80;25.95;;;;;;;2.75;92.72;100195.80;1750407;82;20974;-85
2022/11/19 01:11:15;;;;;;;37.88;23.65;;;;;;;2.75;92.71;100184.16;1748766;81;21100;-86
2022/11/19 01:13:41;;;;;;;38.80;24.85;;;;;;;2.76;92.90;100179.39;1742896;82;21395;-87
2022/11/19 01:16:20;;;;;;;35.23;24.30;;;;;;;2.78;92.96;100160.77;1697841;84;21425;-87
2022/11/19 01:18:48;;;;;;;35.85;23.70;;;;;;;2.80;93.14;100142.56;1744886;82;21434;-87
2022/11/19 01:21:17;;;;;;;33.85;22.42;;;;;;;2.81;93.28;100131.33;1743956;81;20861;-89
2022/11/19 01:23:44;;;;;;;33.10;23.83;;;;;;;2.83;93.46;100137.30;1743412;82;21192;-85
2022/11/19 01:26:11;;;;;;;38.28;24.98;;;;;;;2.84;93.58;100142.39;1743830;82;20861;-85
2022/11/19 01:28:39;;;;;;;34.55;24.85;;;;;;;2.85;93.67;100127.27;1743776;81;21046;-87
2022/11/19 01:31:12;;;;;;;33.00;23.90;;;;;;;2.87;93.78;100134.53;1743606;82;20901;-87
2022/11/19 01:33:40;;;;;;;;;;;;;;;2.88;93.97;100119.38;1746222;81;20980;-87
2022/11/19 01:36:11;;;;;;;30.77;22.42;;;;;;;2.90;94.04;100120.62;1743750;82;21155;-88
2022/11/19 01:38:38;;;;;;;28.65;20.92;;;;;;;2.91;94.11;100130.07;1696701;84;21026;-86
2022/11/19 01:41:04;;;;;;;30.77;20.95;;;;;;;2.91;94.26;100132.66;1743678;82;20885;-87
2022/11/19 01:43:46;;;;;;;27.02;19.62;;;;;;;2.94;94.37;100129.14;1743697;82;20944;-86
2022/11/19 01:46:21;;;;;;;22.85;17.55;;;;;;;2.94;94.48;100119.63;1743641;82;20936;-87
2022/11/19 01:49:14;;;;;;;22.55;17.30;;;;;;;2.96;94.57;100114.36;1743061;81;21362;-88
2022/11/19 01:51:54;;;;;;;20.37;16.82;;;;;;;2.96;94.79;100098.82;1743684;82;20933;-89
2022/11/19 01:54:25;;;;;;;19.65;15.32;;;;;;;2.98;94.84;100080.19;1743818;82;21370;-88
2022/11/19 01:56:54;;;;;;;19.87;14.50;;;;;;;2.97;95.01;100079.35;1743837;81;20968;-86
2022/11/19 01:59:20;;;;;;;18.17;14.38;;;;;;;2.99;95.04;100070.23;1744099;81;20995;-90
2022/11/19 02:01:47;;;;;;;24.52;17.12;;;;;;;2.98;95.20;100048.68;1743701;82;21778;-90
2022/11/19 02:04:15;;;;;;;29.32;22.70;;;;;;;2.99;95.27;100030.09;1743542;82;20885;-89
2022/11/19 02:06:42;;;;;;;36.15;24.05;;;;;;;3.00;95.44;100039.11;1743588;82;20904;-89
2022/11/19 02:09:09;;;;;;;33.00;20.77;;;;;;;2.99;95.63;100037.41;1743708;82;21489;-87
2022/11/19 02:12:16;;;;;;;28.55;19.32;;;;;;;2.98;95.75;100038.33;1743555;82;21367;-89
2022/11/19 02:15:19;;;;;;;29.87;20.70;;;;;;;2.97;95.82;100030.59;1743649;82;20857;-91
2022/11/19 02:17:57;;;;;;;30.92;20.88;;;;;;;2.97;95.93;100052.16;1743598;82;21351;-90
2022/11/19 02:20:43;;;;;;;23.18;15.00;;;;;;;3.00;96.02;100083.14;1743889;82;21431;-90
2022/11/19 02:23:41;;;;;;;18.92;12.05;;;;;;;3.03;96.32;100059.70;1743760;81;20932;-89
2022/11/19 02:26:51;;;;;;;18.45;12.25;;;;;;;3.06;96.58;100052.27;1745407;82;20818;-89
2022/11/19 02:29:49;;;;;;;16.52;11.28;;;;;;;3.06;96.70;100047.08;1704289;80;21278;-91
2022/11/19 02:32:18;;;;;;;19.87;12.63;;;;;;;3.08;96.92;100047.87;1746454;80;20900;-83
2022/11/19 02:34:50;;;;;;;16.35;11.65;;;;;;;3.11;97.19;100051.63;1722397;82;21038;-88
2022/11/19 02:37:31;;;;;;;17.57;13.38;;;;;;;3.12;97.26;100019.66;1746005;82;20837;-90
2022/11/19 02:40:06;;;;;;;16.52;12.18;;;;;;;3.14;97.35;100039.87;1746876;80;20908;-88
2022/11/19 02:42:49;;;;;;;17.65;11.78;;;;;;;3.16;97.54;100025.11;1747109;80;21446;-89
2022/11/19 02:45:39;;;;;;;13.93;9.90;;;;;;;3.18;97.46;100006.89;1746637;80;20834;-86
2022/11/19 02:48:30;;;;;;;12.20;9.88;;;;;;;3.20;97.54;100017.61;1735245;82;20889;-87
2022/11/19 02:50:59;;;;;;;14.15;10.72;;;;;;;3.24;97.56;99982.05;1746669;80;20896;-88
2022/11/19 02:53:25;;;;;;;13.62;11.48;;;;;;;3.27;97.50;99978.89;1746370;80;20901;-89
2022/11/19 02:56:10;;;;;;;14.33;11.28;;;;;;;3.27;97.40;99969.82;1746543;80;21080;-89
2022/11/19 03:04:29;;;;;;;13.10;9.60;;;;;;;3.32;97.35;99961.86;1746361;80;26457;-88
2022/11/19 03:07:14;;;;;;;12.60;10.05;;;;;;;3.34;97.45;99952.73;1746693;81;20829;-91
2022/11/19 03:09:47;;;;;;;10.15;9.00;;;;;;;3.37;97.51;99934.45;1710574;82;21193;-89
2022/11/19 03:12:51;;;;;;;12.88;8.53;;;;;;;3.39;97.55;99924.87;1748182;81;20952;-89
2022/11/19 03:18:51;;;;;;;13.60;9.73;;;;;;;3.42;97.63;99919.55;1763224;81;20852;-90
2022/11/19 03:21:35;;;;;;;14.60;10.30;;;;;;;3.44;97.55;99925.05;1752745;82;20870;-90
2022/11/19 03:24:17;;;;;;;15.60;9.70;;;;;;;3.46;97.54;99927.59;1760472;81;20931;-93
2022/11/19 03:26:59;;;;;;;15.58;9.90;;;;;;;3.50;97.58;99918.78;1710364;82;21405;-89
2022/11/19 03:29:27;;;;;;;8.83;6.92;;;;;;;3.54;97.58;99913.86;1679859;85;21532;-89
2022/11/19 03:31:59;;;;;;;12.78;8.58;;;;;;;3.56;97.61;99892.61;1679800;85;20960;-87
2022/11/19 03:34:27;;;;;;;14.28;8.85;;;;;;;3.59;97.52;99900.70;1711587;83;20989;-89
2022/11/19 03:36:55;;;;;;;11.65;7.65;;;;;;;3.63;97.52;99878.93;1679813;85;21150;-89
2022/11/19 03:39:22;;;;;;;7.83;7.03;;;;;;;3.65;97.40;99881.00;1680023;85;21020;-89
2022/11/19 03:41:48;;;;;;;8.95;7.22;;;;;;;3.66;97.38;99874.44;1711904;83;20929;-89
2022/11/19 03:45:46;;;;;;;13.62;8.13;;;;;;;3.73;97.31;99894.03;1854724;76;22527;-90
2022/11/19 03:48:14;;;;;;;11.68;8.98;;;;;;;3.70;97.33;99868.21;1822320;78;20962;-91
2022/11/19 03:51:01;;;;;;;11.15;7.35;;;;;;;3.73;97.39;99868.53;1822274;78;21203;-90
2022/11/19 03:53:28;;;;;;;13.65;7.67;;;;;;;3.76;97.57;99861.06;1822150;78;20900;-90
2022/11/19 03:56:03;;;;;;;8.18;7.20;;;;;;;3.79;97.86;99872.16;1822337;78;20931;-89
2022/11/19 03:58:33;;;;;;;14.40;9.78;;;;;;;3.81;98.12;99832.73;1822284;78;20892;-94
2022/11/19 04:01:01;;;;;;;11.38;8.83;;;;;;;3.84;98.35;99829.99;1782524;78;20915;-90
2022/11/19 04:03:28;;;;;;;17.67;12.28;;;;;;;3.88;98.58;99828.11;1822500;78;21170;-92
2022/11/19 04:05:54;;;;;;;13.90;10.58;;;;;;;3.92;98.67;99811.05;1822952;78;20911;-92
2022/11/19 04:08:21;;;;;;;7.62;6.10;;;;;;;3.94;98.99;99835.63;1822921;78;20919;-93
2022/11/19 04:10:47;;;;;;;7.00;5.22;;;;;;;3.95;99.33;99771.98;1823562;78;20891;-93
2022/11/19 04:13:15;;;;;;;7.15;5.37;;;;;;;3.98;99.56;99781.41;1823391;78;20970;-92
2022/11/19 04:15:43;;;;;;;6.50;4.78;;;;;;;4.00;99.69;99776.95;1822910;78;21153;-92
2022/11/19 04:18:10;;;;;;;4.20;3.75;;;;;;;4.03;99.80;99791.56;1817901;78;20879;-92
2022/11/19 04:20:39;;;;;;;6.33;4.22;;;;;;;4.06;100.00;99775.84;1822655;78;21029;-91
2022/11/19 04:23:08;;;;;;;5.28;4.55;;;;;;;4.09;100.00;99783.47;1817103;78;20982;-90
2022/11/19 04:25:36;;;;;;;7.28;3.47;;;;;;;4.12;100.00;99795.02;1822679;78;20895;-92
2022/11/19 04:28:03;;;;;;;6.45;4.87;;;;;;;4.16;100.00;99748.56;1822200;78;21135;-91
2022/11/19 04:30:31;;;;;;;3.77;3.17;;;;;;;4.21;100.00;99745.28;1822544;78;20914;-90
2022/11/19 04:32:57;;;;;;;4.60;3.47;;;;;;;4.26;100.00;99752.84;1822894;78;20919;-91
2022/11/19 04:35:24;;;;;;;2.90;2.65;;;;;;;4.30;100.00;99731.03;1822522;78;20962;-93
2022/11/19 04:37:50;;;;;;;4.08;2.72;;;;;;;4.34;100.00;99732.09;1822693;78;20907;-93
2022/11/19 04:40:18;;;;;;;4.67;3.20;;;;;;;4.40;100.00;99717.13;1823574;78;21158;-92
2022/11/19 04:42:46;;;;;;;3.05;2.85;;;;;;;4.43;100.00;99712.64;1824946;78;20955;-91
2022/11/19 04:45:15;;;;;;;3.00;2.72;;;;;;;4.48;100.00;99703.33;1822945;78;20942;-90
2022/11/19 04:47:41;;;;;;;2.87;2.58;;;;;;;4.52;100.00;99694.48;1822606;78;20868;-91
2022/11/19 04:50:08;;;;;;;2.67;2.42;;;;;;;4.57;100.00;99669.11;1817541;78;21508;-91
2022/11/19 04:52:36;;;;;;;4.15;3.50;;;;;;;4.60;100.00;99667.64;1822444;78;21290;-91
2022/11/19 04:55:04;;;;;;;2.67;2.47;;;;;;;4.67;100.00;99673.37;1822084;78;20970;-92
2022/11/19 04:57:30;;;;;;;3.33;2.80;;;;;;;4.73;100.00;99669.16;1824512;78;20880;-89
2022/11/19 04:59:57;;;;;;;2.00;1.90;;;;;;;4.79;100.00;99693.53;1823042;78;20966;-92
2022/11/19 05:02:23;;;;;;;2.52;2.22;;;;;;;4.87;100.00;99723.87;1821855;78;20880;-90
2022/11/19 05:04:50;;;;;;;2.40;2.30;;;;;;;4.93;100.00;99713.14;1822003;78;22031;-91
2022/11/19 05:07:17;;;;;;;3.20;2.90;;;;;;;4.99;100.00;99736.21;1821757;78;21033;-92
2022/11/19 05:09:43;;;;;;;2.92;2.45;;;;;;;5.06;100.00;99696.92;1821845;78;20971;-91
2022/11/19 05:12:10;;;;;;;2.35;2.15;;;;;;;5.12;100.00;99716.11;1821754;78;20926;-90
2022/11/19 05:14:38;;;;;;;2.60;2.20;;;;;;;5.18;100.00;99683.30;1821768;78;20883;-91
2022/11/19 05:17:06;;;;;;;2.22;2.00;;;;;;;5.23;100.00;99690.39;1821771;78;22206;-89
2022/11/19 05:19:34;;;;;;;2.70;1.50;;;;;;;5.28;100.00;99683.18;1821688;78;20967;-90
2022/11/19 05:22:01;;;;;;;1.95;1.77;;;;;;;5.33;100.00;99715.42;1822005;78;20891;-90
2022/11/19 05:24:28;;;;;;;2.10;1.42;;;;;;;5.37;100.00;99686.58;1822151;78;20939;-89
2022/11/19 05:26:54;;;;;;;3.62;2.05;;;;;;;5.41;100.00;99682.07;1822158;78;20907;-92
2022/11/19 05:29:21;;;;;;;1.52;1.20;;;;;;;5.45;100.00;99693.98;1822134;78;21259;-90
2022/11/19 05:31:48;;;;;;;1.37;0.95;;;;;;;5.50;100.00;99689.84;1823027;78;20840;-90
2022/11/19 05:34:16;;;;;;;2.75;2.15;;;;;;;5.54;100.00;99686.98;1822016;78;20958;-90
2022/11/19 05:36:43;;;;;;;1.90;1.37;;;;;;;5.58;100.00;99688.94;1821843;78;21489;-91
2022/11/19 05:39:10;;;;;;;3.27;1.67;;;;;;;5.60;100.00;99691.00;1822162;78;20867;-93
2022/11/19 05:41:38;;;;;;;2.10;1.90;;;;;;;5.61;100.00;99709.13;1821691;78;21211;-92
2022/11/19 05:44:04;;;;;;;2.17;1.98;;;;;;;5.63;100.00;99699.13;1821562;78;20966;-91
2022/11/19 05:46:31;;;;;;;7.10;2.98;;;;;;;5.64;100.00;99705.52;1821833;78;21401;-92
2022/11/19 05:48:58;;;;;;;2.10;1.90;;;;;;;5.64;100.00;99695.59;1821987;78;20946;-91
2022/11/19 05:51:26;;;;;;;2.00;1.80;;;;;;;5.69;100.00;99689.66;1824681;77;20994;-90
2022/11/19 05:53:53;;;;;;;2.85;2.08;;;;;;;5.71;100.00;99669.61;1824502;77;21340;-90
2022/11/19 05:56:19;;;;;;;2.42;2.22;;;;;;;5.75;100.00;99662.02;1824169;77;21243;-91
2022/11/19 05:58:46;;;;;;;4.22;2.65;;;;;;;5.78;100.00;99643.63;1824368;77;21137;-88
2022/11/19 06:01:14;;;;;;;2.77;1.75;;;;;;;5.83;100.00;99635.59;1821767;78;20962;-90
2022/11/19 06:03:42;;;;;;;1.65;1.55;;;;;;;5.87;100.00;99626.22;1821974;78;20856;-91
2022/11/19 06:06:09;;;;;;;1.60;1.50;;;;;;;5.91;100.00;99608.19;1822222;78;21261;-90
2022/11/19 06:08:35;;;;;;;3.05;1.75;;;;;;;5.98;100.00;99599.59;1821697;78;20912;-89
2022/11/19 06:11:03;;;;;;;2.60;1.75;;;;;;;6.03;100.00;99631.89;1821894;78;21413;-89
2022/11/19 06:13:30;;;;;;;1.50;1.40;;;;;;;6.06;100.00;99597.87;1821648;78;20872;-89
2022/11/19 06:15:58;;;;;;;2.77;1.92;;;;;;;6.12;100.00;99575.40;1821996;78;20868;-88
2022/11/19 06:18:24;;;;;;;2.12;1.50;;;;;;;6.14;100.00;99581.36;1821794;78;21323;-91
2022/11/19 06:20:52;;;;;;;1.85;1.70;;;;;;;6.19;100.00;99583.22;1821912;78;21002;-94
2022/11/19 06:23:19;;;;;;;1.70;1.60;;;;;;;6.22;100.00;99598.20;1823829;78;21012;-90
2022/11/19 06:25:49;;;;;;;2.37;2.17;;;;;;;6.28;100.00;99622.20;1823668;78;20922;-90
2022/11/19 06:28:16;;;;;;;3.25;2.27;;;;;;;6.32;100.00;99621.92;1822347;78;21451;-92
2022/11/19 06:30:44;;;;;;;3.20;2.72;;;;;;;6.37;100.00;99630.77;1822193;78;21164;-89
2022/11/19 06:33:11;;;;;;;4.65;2.70;;;;;;;6.41;100.00;99633.09;1821876;78;21399;-90
2022/11/19 06:35:38;;;;;;;4.97;2.37;;;;;;;6.47;100.00;99628.45;1821594;78;21377;-91
2022/11/19 06:38:05;;;;;;;3.60;3.30;;;;;;;6.53;100.00;99615.90;1821507;78;20892;-92
2022/11/19 06:40:32;;;;;;;3.98;3.58;;;;;;;6.60;100.00;99621.14;1821551;78;20891;-91
2022/11/19 06:42:58;;;;;;;4.75;4.35;;;;;;;6.67;100.00;99628.13;1822029;78;21830;-91
2022/11/19 06:45:28;;;;;;;4.15;3.85;;;;;;;6.74;100.00;99620.78;1823543;78;20876;-92
2022/11/19 06:47:56;;;;;;;5.00;4.12;;;;;;;6.82;100.00;99633.69;1825602;78;20962;-93
2022/11/19 06:50:23;;;;;;;5.17;3.52;;;;;;;6.88;100.00;99620.77;1827720;78;20932;-90
2022/11/19 06:52:50;;;;;;;2.50;2.30;;;;;;;6.94;100.00;99599.55;1828136;77;20892;-87
2022/11/19 06:55:19;;;;;;;3.70;2.80;;;;;;;7.00;100.00;99603.53;1828068;77;21190;-90
2022/11/19 06:57:46;;;;;;;3.02;2.27;;;;;;;7.05;100.00;99601.50;1827083;77;20915;-91
2022/11/19 07:00:16;;;;;;;3.33;3.00;;;;;;;7.09;100.00;99587.80;1825828;78;20912;-91
2022/11/19 07:02:43;;;;;;;3.60;2.75;;;;;;;7.13;100.00;99568.42;1825509;78;21002;-90
2022/11/19 07:05:10;;;;;;;3.42;2.17;;;;;;;7.19;100.00;99571.96;1825830;78;20856;-92
2022/11/19 07:07:37;;;;;;;3.58;3.27;;;;;;;7.23;100.00;99566.93;1826430;78;21192;-91
2022/11/19 07:10:06;;;;;;;3.98;3.60;;;;;;;7.31;100.00;99557.30;1825817;78;20915;-91
2022/11/19 07:12:33;;;;;;;10.50;4.85;;;;;;;7.39;100.00;99545.45;1825960;78;20986;-91
2022/11/19 07:15:01;;;;;;;3.55;2.70;;;;;;;7.47;100.00;99560.15;1825680;78;20892;-92
2022/11/19 07:17:30;;;;;;;3.00;2.00;;;;;;;7.56;100.00;99536.55;1825893;78;20930;-93
2022/11/19 07:19:57;;;;;;;2.00;1.80;;;;;;;7.65;100.00;99544.25;1825771;78;21198;-91
2022/11/19 07:22:24;;;;;;;4.55;2.72;;;;;;;7.70;100.00;99540.86;1827670;78;20915;-90
2022/11/19 07:24:51;;;;;;;2.20;2.00;;;;;;;7.77;100.00;99548.64;1827286;78;20844;-89
2022/11/19 07:27:19;;;;;;;2.60;1.55;;;;;;;7.84;100.00;99529.50;1826491;78;20918;-91
2022/11/19 07:29:45;;;;;;;2.52;1.80;;;;;;;7.92;100.00;99516.79;1826761;78;20916;-91
2022/11/19 07:32:13;;;;;;;3.60;1.87;;;;;;;8.00;100.00;99526.70;1826147;78;21857;-91
2022/11/19 07:34:42;;;;;;;2.20;1.75;;;;;;;8.07;100.00;99509.68;1825529;78;20910;-93
2022/11/19 07:37:08;;;;;;;2.85;2.00;;;;;;;8.14;100.00;99504.87;1825696;78;20926;-91
2022/11/19 07:39:34;;;;;;;2.92;2.00;;;;;;;8.18;100.00;99498.06;1825936;78;20998;-90
2022/11/19 07:44:48;;;;;;;2.40;2.10;;;;;;;8.38;100.00;99492.78;1824215;78;21858;-90
2022/11/19 07:47:15;;;;;;;2.50;2.30;;;;;;;8.47;100.00;99503.94;1825183;78;20923;-89
2022/11/19 07:49:42;;;;;;;2.58;2.37;;;;;;;8.57;100.00;99499.37;1825010;78;20847;-88
2022/11/19 07:52:08;;;;;;;2.95;2.55;;;;;;;8.66;100.00;99497.41;1825756;78;21002;-91
2022/11/19 07:54:35;;;;;;;6.22;5.12;;;;;;;8.76;100.00;99488.44;1825596;78;20971;-90
2022/11/19 07:57:01;;;;;;;4.25;3.85;;;;;;;8.85;100.00;99475.58;1825439;78;21149;-90
2022/11/19 07:59:28;;;;;;;4.78;4.22;;;;;;;8.95;100.00;99470.52;1825539;78;20903;-90
2022/11/19 08:01:55;;;;;;;5.87;5.28;;;;;;;9.04;100.00;99462.48;1825827;78;20954;-90
2022/11/19 08:04:22;;;;;;;4.80;3.80;;;;;;;9.14;100.00;99476.57;1826570;78;20911;-91
2022/11/19 08:06:50;;;;;;;6.22;4.92;;;;;;;9.26;100.00;99472.22;1826455;78;20844;-90
2022/11/19 08:09:16;;;;;;;8.03;5.87;;;;;;;9.35;100.00;99470.23;1825712;78;21644;-89
2022/11/19 08:11:44;;;;;;;6.55;4.83;;;;;;;9.43;100.00;99466.59;1825484;78;21441;-90
2022/11/19 08:14:12;;;;;;;5.37;4.62;;;;;;;9.50;100.00;99479.58;1826141;78;20888;-88
2022/11/19 08:19:24;;;;;;;4.97;4.47;;;;;;;9.67;100.00;99492.73;1827642;78;20915;-90
2022/11/19 08:21:51;;;;;;;5.25;4.50;;;;;;;9.76;100.00;99484.67;1826774;78;22069;-88
2022/11/19 08:24:18;;;;;;;7.42;5.12;;;;;;;9.85;100.00;99486.59;1826453;78;20821;-88
2022/11/19 08:26:46;;;;;;;9.85;6.03;;;;;;;9.93;100.00;99486.83;1826117;78;20942;-90
2022/11/19 08:29:13;;;;;;;7.03;5.70;;;;;;;10.02;100.00;99490.53;1825302;78;20986;-91
2022/11/19 08:31:42;;;;;;;5.35;4.75;;;;;;;10.10;100.00;99487.35;1825581;78;20836;-93
2022/11/19 08:34:08;;;;;;;9.83;5.42;;;;;;;10.19;100.00;99481.41;1825338;78;21219;-89
2022/11/19 08:36:37;;;;;;;8.28;5.12;;;;;;;10.27;100.00;99468.55;1825196;78;20919;-89
2022/11/19 08:39:05;;;;;;;6.47;5.85;;;;;;;10.37;100.00;99477.87;1825618;78;21006;-90
2022/11/19 08:44:17;;;;;;;10.35;7.95;;;;;;;10.57;100.00;99488.11;1797672;78;21010;-90
2022/11/19 08:46:44;;;;;;;14.93;8.48;;;;;;;10.66;100.00;99486.56;1823063;78;21210;-90
2022/11/19 08:49:11;;;;;;;10.20;8.40;;;;;;;10.73;100.00;99486.42;1822000;78;20872;-92
2022/11/19 08:51:39;;;;;;;11.25;7.90;;;;;;;10.80;100.00;99474.48;1821906;78;20922;-91
2022/11/19 08:54:07;;;;;;;11.45;7.87;;;;;;;10.89;100.00;99478.17;1822392;78;20978;-91
2022/11/19 08:56:34;;;;;;;14.10;7.97;;;;;;;10.99;100.00;99465.52;1822240;78;20876;-92
2022/11/19 08:59:01;;;;;;;13.43;9.43;;;;;;;11.09;100.00;99467.39;1821917;78;21232;-92
2022/11/19 09:01:28;;;;;;;14.33;10.15;;;;;;;11.17;100.00;99456.64;1822879;78;20899;-92
2022/11/19 09:03:55;;;;;;;19.02;11.60;;;;;;;11.28;100.00;99470.20;1824973;78;20903;-93
2022/11/19 09:06:22;;;;;;;17.02;11.22;;;;;;;11.38;100.00;99468.50;1825054;78;20947;-93
2022/11/19 09:08:49;;;;;;;23.75;12.43;;;;;;;11.48;100.00;99461.18;1825180;78;20962;-91
2022/11/19 09:11:19;;;;;;;13.90;11.85;;;;;;;11.59;100.00;99478.19;1824441;78;20932;-92
2022/11/19 09:13:45;;;;;;;19.50;12.70;;;;;;;11.68;100.00;99470.86;1816928;78;20887;-93
2022/11/19 09:16:12;;;;;;;17.55;11.22;;;;;;;11.74;100.00;99453.77;1822037;78;20994;-90
2022/11/19 09:18:41;;;;;;;17.77;13.85;;;;;;;11.80;100.00;99454.55;1821636;78;21073;-91
2022/11/19 09:21:10;;;;;;;17.57;11.48;;;;;;;11.88;100.00;99444.27;1822042;78;20914;-91
2022/11/19 09:23:37;;;;;;;19.80;13.55;;;;;;;11.94;100.00;99442.45;1822263;78;21287;-91
2022/11/19 09:26:07;;;;;;;23.42;14.78;;;;;;;12.02;100.00;99452.30;1822412;78;20923;-92
2022/11/19 09:28:34;;;;;;;23.25;12.35;;;;;;;12.08;100.00;99445.21;1822119;78;20931;-91
2022/11/19 09:34:06;;;;;;;18.50;13.10;;;;;;;12.23;100.00;99456.22;1676447;80;20944;-86
2022/11/19 09:36:33;;;;;;;23.15;13.80;;;;;;;12.30;100.00;99457.84;1679822;84;21262;-87
2022/11/19 09:39:01;;;;;;;21.40;12.85;;;;;;;12.34;100.00;99452.64;1679775;84;21089;-87
2022/11/19 09:42:00;;;;;;;18.02;11.90;;;;;;;12.37;100.00;99451.91;1679786;84;21016;-89
2022/11/19 09:45:05;;;;;;;28.57;13.53;;;;;;;12.41;100.00;99463.83;1632962;86;21526;-86
2022/11/19 09:48:16;;;;;;;25.97;14.60;;;;;;;12.47;100.00;99462.94;1632413;86;20925;-88
2022/11/19 09:51:01;;;;;;;21.20;12.43;;;;;;;12.53;100.00;99472.45;1694828;83;20884;-88
2022/11/19 09:53:40;;;;;;;22.48;13.15;;;;;;;12.57;100.00;99467.27;1700056;83;21002;-86
2022/11/19 09:56:11;;;;;;;27.50;15.03;;;;;;;12.59;100.00;99477.19;1700163;83;20864;-86
2022/11/19 09:58:42;;;;;;;27.32;13.78;;;;;;;12.63;100.00;99486.48;1699001;83;20983;-87
2022/11/19 10:01:18;;;;;;;22.50;14.45;;;;;;;12.65;100.00;99498.19;1700152;83;20924;-87
2022/11/19 10:03:53;;;;;;;21.40;14.18;;;;;;;12.69;100.00;99504.82;1698976;83;21277;-85
2022/11/19 10:06:29;;;;;;;27.07;13.98;;;;;;;12.71;100.00;99505.52;1700149;84;20935;-88
2022/11/19 10:09:25;;;;;;;20.08;11.93;;;;;;;12.77;100.00;99516.02;1700365;83;20904;-88
2022/11/19 10:11:56;;;;;;;;;;;;;;;12.84;100.00;99524.53;1702440;83;21003;-87
2022/11/19 10:14:55;;;;;;;25.70;13.58;;;;;;;12.93;100.00;99528.66;1699848;83;20102;-89
2022/11/19 10:18:05;;;;;;;26.45;13.98;;;;;;;12.98;100.00;99533.02;1699883;83;20935;-86
2022/11/19 10:20:45;;;;;;;21.17;10.93;;;;;;;13.02;100.00;99539.20;1687234;83;21506;-86
2022/11/19 10:23:22;;;;;;;16.37;10.75;;;;;;;13.05;100.00;99549.97;1722446;82;21383;-88
2022/11/19 10:25:52;;;;;;;19.45;11.43;;;;;;;13.10;100.00;99550.39;1722329;82;20976;-87
2022/11/19 10:28:23;;;;;;;15.65;10.60;;;;;;;13.16;100.00;99555.12;1722529;82;21028;-89
2022/11/19 10:30:54;;;;;;;11.53;9.10;;;;;;;13.25;100.00;99562.20;1721814;82;21200;-87
2022/11/19 10:33:43;;;;;;;11.85;9.00;;;;;;;13.40;100.00;99557.88;1722686;82;20976;-88
2022/11/19 10:36:18;;;;;;;14.10;9.83;;;;;;;13.59;100.00;99563.18;1687706;83;20965;-87
2022/11/19 10:39:08;;;;;;;9.38;6.95;;;;;;;13.83;100.00;99569.86;1695548;83;20962;-87
2022/11/19 10:42:04;;;;;;;9.63;7.22;;;;;;;14.02;97.61;99584.33;1695455;84;20907;-87
2022/11/19 10:44:44;;;;;;;8.53;5.85;;;;;;;14.25;95.64;99583.56;1695270;84;21125;-87
2022/11/19 10:47:34;;;;;;;6.37;5.33;;;;;;;14.46;91.73;99593.92;1697157;82;20994;-87
2022/11/19 10:50:01;;;;;;;9.33;4.17;;;;;;;14.55;88.65;99609.41;1695008;83;21021;-87
2022/11/19 10:52:42;;;;;;;8.08;4.17;;;;;;;14.63;86.00;99614.81;1695270;83;21523;-90
2022/11/19 10:55:38;;;;;;;8.00;4.87;;;;;;;14.68;85.27;99624.45;1695117;83;21519;-87
2022/11/19 10:58:16;;;;;;;7.87;4.62;;;;;;;14.72;84.67;99626.33;1695084;83;21828;-88
2022/11/19 11:00:42;;;;;;;5.75;4.58;;;;;;;14.64;83.03;99637.58;1669192;84;20917;-88
2022/11/19 11:03:51;;;;;;;5.45;3.40;;;;;;;14.49;82.07;99645.06;1690816;83;21013;-87
2022/11/19 11:06:15;;;;;;;;;;;;;;;14.33;81.54;99673.00;1696875;83;21034;-88
2022/11/19 11:08:51;;;;;;;5.15;2.95;;;;;;;14.14;81.67;99679.09;1695275;83;20135;-86
2022/11/19 11:17:04;;;;;;;7.12;4.72;;;;;;;13.77;80.35;99699.53;1681266;84;20943;-82
2022/11/19 11:19:30;;;;;;;6.10;4.80;;;;;;;13.59;80.38;99715.15;1696432;84;21018;-86
2022/11/19 11:21:57;;;;;;;119.60;86.75;;;;;;;13.43;80.57;99727.02;1695818;83;20947;-84
2022/11/19 11:24:36;;;;;;;10.45;7.62;;;;;;;13.38;81.15;99737.58;1697053;84;21159;-87
2022/11/19 11:27:26;;;;;;;7.75;3.37;;;;;;;13.33;81.47;99744.55;1696190;84;21376;-88
2022/11/19 11:30:16;;;;;;;3.80;2.87;;;;;;;13.29;81.04;99756.31;1695899;84;20891;-87
2022/11/19 11:32:43;;;;;;;3.12;2.35;;;;;;;13.25;80.82;99772.84;1695676;83;20942;-88
2022/11/19 11:35:31;;;;;;;5.47;3.15;;;;;;;13.19;79.89;99779.94;1706737;83;21020;-90
2022/11/19 11:38:00;;;;;;;3.20;2.90;;;;;;;13.08;79.01;99794.97;1722644;82;21994;-89
2022/11/19 11:40:26;;;;;;;4.30;2.22;;;;;;;12.91;78.54;99806.89;1728669;81;20898;-91
2022/11/19 11:42:53;;;;;;;3.80;2.58;;;;;;;12.79;78.42;99812.20;1722672;82;20878;-89
2022/11/19 11:45:33;;;;;;;4.72;2.37;;;;;;;12.69;78.45;99823.12;1722597;83;20965;-89
2022/11/19 11:48:07;;;;;;;3.02;2.10;;;;;;;12.59;78.68;99831.42;1719031;83;20953;-91
2022/11/19 11:50:35;;;;;;;2.52;2.33;;;;;;;12.49;79.19;99855.47;1722519;83;21285;-90
2022/11/19 11:53:07;;;;;;;2.98;2.72;;;;;;;12.40;79.83;99857.86;1722608;82;20961;-90
2022/11/19 11:55:34;;;;;;;4.60;3.35;;;;;;;12.31;79.89;99863.86;1722322;83;20890;-90
2022/11/19 11:58:22;;;;;;;4.62;3.33;;;;;;;12.18;80.09;99874.98;1722521;83;20945;-91
2022/11/19 12:00:48;;;;;;;2.70;2.50;;;;;;;12.06;79.82;99875.48;1706898;83;21032;-90
2022/11/19 12:03:20;;;;;;;3.17;2.87;;;;;;;11.89;79.94;99883.83;1728118;81;21787;-90
2022/11/19 12:06:00;;;;;;;3.60;3.30;;;;;;;11.74;80.22;99893.72;1722356;82;20993;-91
2022/11/19 12:09:01;;;;;;;2.62;2.42;;;;;;;11.60;80.29;99893.44;1723501;82;20878;-91
2022/11/19 12:11:56;;;;;;;2.98;2.77;;;;;;;11.49;80.46;99897.35;1724103;83;20953;-91
2022/11/19 12:14:57;;;;;;;4.22;3.83;;;;;;;11.40;80.84;99910.69;1725109;82;20902;-90
2022/11/19 12:18:04;;;;;;;5.35;4.20;;;;;;;11.31;80.53;99906.13;1723150;82;21152;-91
2022/11/19 12:21:10;;;;;;;9.88;7.78;;;;;;;11.24;80.81;99921.98;1722661;82;20909;-87